createdAt,value
2022-12-17T10:29:14.316Z,-4.82
2022-12-17T10:30:15.287Z,-4.80
2022-12-17T10:34:03.340Z,-4.78
2022-12-17T10:35:05.676Z,-4.77
2022-12-17T10:36:04.077Z,-4.74
2022-12-17T10:37:04.058Z,-4.71
2022-12-17T10:38:04.063Z,-4.67
2022-12-17T10:42:11.477Z,-4.54
2022-12-17T10:43:12.444Z,-4.53
2022-12-17T10:44:12.418Z,-4.46
2022-12-17T10:45:12.418Z,-4.41
2022-12-17T10:46:12.448Z,-4.41
2022-12-17T10:47:12.392Z,-4.38
2022-12-17T10:48:12.399Z,-4.36
2022-12-17T10:49:12.414Z,-4.34
2022-12-17T10:50:12.389Z,-4.34
2022-12-17T10:51:12.333Z,-4.34
2022-12-17T10:52:12.356Z,-4.27
2022-12-17T10:53:12.303Z,-4.23
2022-12-17T10:54:12.315Z,-4.21
2022-12-17T10:55:12.343Z,-4.18
2022-12-17T10:56:12.289Z,-4.17
2022-12-17T10:57:12.276Z,-4.14
2022-12-17T10:58:12.247Z,-4.14
2022-12-17T10:59:12.237Z,-4.17
2022-12-17T11:00:12.236Z,-4.15
2022-12-17T11:01:12.353Z,-4.14
2022-12-17T11:02:12.356Z,-4.12
2022-12-17T11:03:12.271Z,-4.10
2022-12-17T11:04:12.175Z,-4.09
2022-12-17T11:05:12.156Z,-4.12
2022-12-17T11:06:12.169Z,-4.07
2022-12-17T11:07:12.140Z,-4.06
2022-12-17T11:08:12.147Z,-4.02
2022-12-17T11:09:12.104Z,-4.02
2022-12-17T11:10:12.096Z,-3.99
2022-12-17T11:11:12.101Z,-3.94
2022-12-17T11:12:12.091Z,-3.91
2022-12-17T11:13:12.060Z,-3.89
2022-12-17T11:14:12.046Z,-3.88
2022-12-17T11:15:12.035Z,-3.84
2022-12-17T11:16:12.114Z,-3.82
2022-12-17T11:17:12.002Z,-3.82
2022-12-17T11:18:12.148Z,-3.78
2022-12-17T11:19:11.982Z,-3.74
2022-12-17T11:20:11.976Z,-3.77
2022-12-17T11:21:11.988Z,-3.69
2022-12-17T11:22:11.953Z,-3.66
2022-12-17T11:23:11.927Z,-3.66
2022-12-17T11:24:11.928Z,-3.65
2022-12-17T11:25:11.899Z,-3.62
2022-12-17T11:26:11.929Z,-3.62
2022-12-17T11:27:11.927Z,-3.60
2022-12-17T11:28:11.875Z,-3.60
2022-12-17T11:29:11.862Z,-3.60
2022-12-17T11:30:11.858Z,-3.63
2022-12-17T11:31:11.894Z,-3.63
2022-12-17T11:32:11.820Z,-3.59
2022-12-17T11:33:11.845Z,-3.60
2022-12-17T11:34:11.801Z,-3.55
2022-12-17T11:35:11.785Z,-3.55
2022-12-17T11:36:11.903Z,-3.57
2022-12-17T11:37:11.761Z,-3.55
2022-12-17T11:38:11.759Z,-3.55
2022-12-17T11:39:11.733Z,-3.54
2022-12-17T11:40:11.718Z,-3.51
2022-12-17T11:41:11.754Z,-3.48
2022-12-17T11:42:11.823Z,-3.47
2022-12-17T11:43:11.715Z,-3.45
2022-12-17T11:44:11.673Z,-3.42
2022-12-17T11:45:11.661Z,-3.39
2022-12-17T11:46:11.706Z,-3.36
2022-12-17T11:47:11.633Z,-3.36
2022-12-17T11:48:11.654Z,-3.34
2022-12-17T11:49:11.612Z,-3.34
2022-12-17T11:50:11.604Z,-3.33
2022-12-17T11:51:11.583Z,-3.30
2022-12-17T11:52:11.560Z,-3.29
2022-12-17T11:53:11.577Z,-3.26
2022-12-17T11:54:11.556Z,-3.18
2022-12-17T11:55:11.525Z,-3.18
2022-12-17T11:56:11.543Z,-3.15
2022-12-17T11:57:11.512Z,-3.13
2022-12-17T11:58:11.600Z,-3.12
2022-12-17T11:59:11.483Z,-3.12
2022-12-17T12:00:11.465Z,-3.08
2022-12-17T12:01:11.472Z,-3.09
2022-12-17T12:02:11.438Z,-3.08
2022-12-17T12:03:11.590Z,-3.03
2022-12-17T12:04:11.516Z,-3.02
2022-12-17T12:05:11.403Z,-3.03
2022-12-17T12:06:11.420Z,-3.02
2022-12-17T12:07:11.408Z,-3.02
2022-12-17T12:08:11.359Z,-3.01
2022-12-17T12:09:11.360Z,-3.01
2022-12-17T12:10:11.373Z,-3.03
2022-12-17T12:11:11.335Z,-3.03
2022-12-17T12:12:11.343Z,-3.01
2022-12-17T12:13:11.310Z,-3.01
2022-12-17T12:14:11.297Z,-2.98
2022-12-17T12:15:11.288Z,-2.97
2022-12-17T12:16:11.362Z,-2.94
2022-12-17T12:17:11.276Z,-2.94
2022-12-17T12:18:11.237Z,-2.92
2022-12-17T12:19:11.226Z,-2.97
2022-12-17T12:20:11.272Z,-2.95
2022-12-17T12:21:11.230Z,-2.97
2022-12-17T12:22:11.201Z,-2.92
2022-12-17T12:23:11.215Z,-2.91
2022-12-17T12:24:11.175Z,-2.95
2022-12-17T12:25:11.168Z,-2.88
2022-12-17T12:26:11.167Z,-2.87
2022-12-17T12:27:11.142Z,-2.87
2022-12-17T12:28:11.131Z,-2.87
2022-12-17T12:29:11.148Z,-2.88
2022-12-17T12:30:11.166Z,-2.82
2022-12-17T12:31:11.141Z,-2.85
2022-12-17T12:32:11.064Z,-2.87
2022-12-17T12:33:11.049Z,-2.91
2022-12-17T12:34:11.059Z,-2.88
2022-12-17T12:35:11.068Z,-2.90
2022-12-17T12:36:11.014Z,-2.87
2022-12-17T12:37:11.035Z,-2.87
2022-12-17T12:38:10.993Z,-2.87
2022-12-17T12:39:10.980Z,-2.88
2022-12-17T12:40:10.981Z,-2.88
2022-12-17T12:41:10.951Z,-2.85
2022-12-17T12:42:10.948Z,-2.91
2022-12-17T12:43:10.946Z,-2.88
2022-12-17T12:44:10.909Z,-2.90
2022-12-17T12:45:10.902Z,-2.88
2022-12-17T12:46:10.964Z,-2.88
2022-12-17T12:47:10.910Z,-2.90
2022-12-17T12:48:10.856Z,-2.91
2022-12-17T12:49:10.890Z,-2.87
2022-12-17T12:50:10.843Z,-2.88
2022-12-17T12:51:10.823Z,-2.88
2022-12-17T12:52:10.810Z,-2.85
2022-12-17T12:53:10.841Z,-2.84
2022-12-17T12:54:10.777Z,-2.82
2022-12-17T12:55:10.772Z,-2.84
2022-12-17T12:56:10.773Z,-2.85
2022-12-17T12:57:10.748Z,-2.84
2022-12-17T12:58:10.749Z,-2.82
2022-12-17T12:59:10.725Z,-2.82
2022-12-17T13:00:10.708Z,-2.80
2022-12-17T13:01:10.759Z,-2.82
2022-12-17T13:02:10.783Z,-2.85
2022-12-17T13:03:10.766Z,-2.84
2022-12-17T13:04:10.662Z,-2.82
2022-12-17T13:05:10.646Z,-2.80
2022-12-17T13:06:10.634Z,-2.79
2022-12-17T13:07:10.626Z,-2.77
2022-12-17T13:08:10.626Z,-2.79
2022-12-17T13:09:10.593Z,-2.74
2022-12-17T13:10:10.586Z,-2.76
2022-12-17T13:11:10.581Z,-2.76
2022-12-17T13:12:10.552Z,-2.82
2022-12-17T13:13:10.575Z,-2.84
2022-12-17T13:14:10.525Z,-2.84
2022-12-17T13:15:10.521Z,-2.85
2022-12-17T13:16:10.528Z,-2.84
2022-12-17T13:17:10.504Z,-2.88
2022-12-17T13:18:10.506Z,-2.84
2022-12-17T13:19:10.466Z,-2.87
2022-12-17T13:20:10.451Z,-2.90
2022-12-17T13:21:10.446Z,-2.88
2022-12-17T13:22:10.433Z,-2.92
2022-12-17T13:23:10.419Z,-2.91
2022-12-17T13:24:10.448Z,-2.90
2022-12-17T13:25:10.408Z,-2.91
2022-12-17T13:26:10.389Z,-2.88
2022-12-17T13:27:10.380Z,-2.90
2022-12-17T13:28:10.361Z,-2.88
2022-12-17T13:29:10.422Z,-2.90
2022-12-17T13:30:10.351Z,-2.92
2022-12-17T13:31:10.316Z,-2.91
2022-12-17T13:32:10.371Z,-2.92
2022-12-17T13:33:10.319Z,-2.92
2022-12-17T13:34:10.324Z,-2.91
2022-12-17T13:35:10.782Z,-2.88
2022-12-17T13:36:10.250Z,-2.90
2022-12-17T13:37:10.259Z,-2.90
2022-12-17T13:38:10.231Z,-2.90
2022-12-17T13:39:10.254Z,-2.91
2022-12-17T13:40:10.238Z,-2.91
2022-12-17T13:41:10.841Z,-2.88
2022-12-17T13:42:10.190Z,-2.88
2022-12-17T13:43:10.172Z,-2.87
2022-12-17T13:44:10.189Z,-2.82
2022-12-17T13:45:10.165Z,-2.80
2022-12-17T13:46:10.231Z,-2.80
2022-12-17T13:47:10.123Z,-2.80
2022-12-17T13:48:10.106Z,-2.84
2022-12-17T13:49:10.095Z,-2.84
2022-12-17T13:50:33.346Z,-2.84
2022-12-17T13:51:10.072Z,-2.87
2022-12-17T13:52:12.106Z,-2.82
2022-12-17T13:53:10.078Z,-2.84
2022-12-17T13:54:10.040Z,-2.80
2022-12-17T13:55:10.085Z,-2.82
2022-12-17T13:56:09.996Z,-2.80
2022-12-17T13:57:10.054Z,-2.80
2022-12-17T13:58:09.976Z,-2.79
2022-12-17T13:59:09.970Z,-2.70
2022-12-17T14:00:09.977Z,-2.64
2022-12-17T14:01:10.023Z,-2.64
2022-12-17T14:02:10.040Z,-2.61
2022-12-17T14:03:10.024Z,-2.59
2022-12-17T14:04:09.960Z,-2.59
2022-12-17T14:05:09.919Z,-2.59
2022-12-17T14:06:09.872Z,-2.63
2022-12-17T14:07:09.872Z,-2.61
2022-12-17T14:08:09.856Z,-2.63
2022-12-17T14:09:09.843Z,-2.66
2022-12-17T14:10:09.849Z,-2.66
2022-12-17T14:11:09.819Z,-2.64
2022-12-17T14:12:09.800Z,-2.61
2022-12-17T14:13:09.797Z,-2.61
2022-12-17T14:14:09.772Z,-2.63
2022-12-17T14:15:09.789Z,-2.55
2022-12-17T14:16:09.796Z,-2.51
2022-12-17T14:17:09.820Z,-2.52
2022-12-17T14:18:09.725Z,-2.48
2022-12-17T14:19:09.729Z,-2.45
2022-12-17T14:20:09.715Z,-2.45
2022-12-17T14:21:09.738Z,-2.41
2022-12-17T14:22:09.675Z,-2.40
2022-12-17T14:23:09.670Z,-2.40
2022-12-17T14:24:09.652Z,-2.37
2022-12-17T14:25:09.674Z,-2.40
2022-12-17T14:26:09.673Z,-2.37
2022-12-17T14:27:09.625Z,-2.41
2022-12-17T14:28:09.593Z,-2.43
2022-12-17T14:29:09.607Z,-2.45
2022-12-17T14:30:09.577Z,-2.48
2022-12-17T14:31:27.071Z,-2.51
2022-12-17T14:32:09.618Z,-2.52
2022-12-17T14:33:09.549Z,-2.54
2022-12-17T14:34:09.532Z,-2.56
2022-12-17T14:35:09.545Z,-2.56
2022-12-17T14:36:09.539Z,-2.54
2022-12-17T14:37:09.524Z,-2.58
2022-12-17T14:38:09.477Z,-2.58
2022-12-17T14:39:09.484Z,-2.61
2022-12-17T14:40:09.458Z,-2.66
2022-12-17T14:41:09.486Z,-2.66
2022-12-17T14:42:09.431Z,-2.70
2022-12-17T14:43:09.421Z,-2.74
2022-12-17T14:44:09.410Z,-2.74
2022-12-17T14:45:09.398Z,-2.77
2022-12-17T14:46:09.468Z,-2.82
2022-12-17T14:47:09.374Z,-2.84
2022-12-17T14:48:09.368Z,-2.88
2022-12-17T14:49:09.349Z,-2.91
2022-12-17T14:50:09.329Z,-2.94
2022-12-17T14:51:09.334Z,-3.03
2022-12-17T14:52:09.320Z,-3.06
2022-12-17T14:53:09.287Z,-3.10
2022-12-17T14:54:09.282Z,-3.15
2022-12-17T14:55:09.264Z,-3.21
2022-12-17T14:56:09.249Z,-3.26
2022-12-17T14:57:09.251Z,-3.29
2022-12-17T14:58:09.230Z,-3.31
2022-12-17T14:59:09.223Z,-3.38
2022-12-17T15:00:09.209Z,-3.41
2022-12-17T15:01:09.325Z,-3.39
2022-12-17T15:02:09.432Z,-3.44
2022-12-17T15:03:09.309Z,-3.42
2022-12-17T15:04:09.149Z,-3.45
2022-12-17T15:05:09.165Z,-3.48
2022-12-17T15:06:09.128Z,-3.49
2022-12-17T15:07:14.696Z,-3.49
2022-12-17T15:08:09.108Z,-3.48
2022-12-17T15:09:09.090Z,-3.48
2022-12-17T15:10:09.086Z,-3.51
2022-12-17T15:11:09.066Z,-3.52
2022-12-17T15:12:09.082Z,-3.55
2022-12-17T15:13:09.045Z,-3.60
2022-12-17T15:14:09.021Z,-3.67
2022-12-17T15:15:09.015Z,-3.72
2022-12-17T15:16:08.995Z,-3.78
2022-12-17T15:17:09.059Z,-3.82
2022-12-17T15:18:08.977Z,-3.88
2022-12-17T15:19:08.967Z,-3.91
2022-12-17T15:20:08.941Z,-3.96
2022-12-17T15:21:08.958Z,-4.00
2022-12-17T15:22:08.923Z,-4.00
2022-12-17T15:23:08.933Z,-4.07
2022-12-17T15:24:08.896Z,-4.12
2022-12-17T15:25:08.891Z,-4.12
2022-12-17T15:26:08.868Z,-4.14
2022-12-17T15:27:08.857Z,-4.17
2022-12-17T15:28:08.884Z,-4.21
2022-12-17T15:29:08.841Z,-4.21
2022-12-17T15:30:08.826Z,-4.20
2022-12-17T15:31:08.885Z,-4.20
2022-12-17T15:32:08.795Z,-4.18
2022-12-17T15:33:08.812Z,-4.20
2022-12-17T15:34:08.790Z,-4.18
2022-12-17T15:35:08.767Z,-4.21
2022-12-17T15:36:08.745Z,-4.24
2022-12-17T15:37:08.760Z,-4.27
2022-12-17T15:38:08.729Z,-4.28
2022-12-17T15:39:08.718Z,-4.24
2022-12-17T15:40:08.717Z,-4.25
2022-12-17T15:41:08.697Z,-4.24
2022-12-17T15:42:08.774Z,-4.27
2022-12-17T15:43:08.693Z,-4.28
2022-12-17T15:44:08.656Z,-4.30
2022-12-17T15:45:08.638Z,-4.31
2022-12-17T15:46:08.665Z,-4.31
2022-12-17T15:47:08.650Z,-4.35
2022-12-17T15:48:08.609Z,-4.38
2022-12-17T15:49:08.578Z,-4.38
2022-12-17T15:50:08.582Z,-4.42
2022-12-17T15:51:08.563Z,-4.42
2022-12-17T15:52:08.551Z,-4.45
2022-12-17T15:53:08.565Z,-4.49
2022-12-17T15:54:08.541Z,-4.49
2022-12-17T15:55:08.516Z,-4.48
2022-12-17T15:56:08.513Z,-4.46
2022-12-17T15:57:08.486Z,-4.46
2022-12-17T15:58:08.502Z,-4.48
2022-12-17T15:59:08.469Z,-4.48
2022-12-17T16:00:08.452Z,-4.48
2022-12-17T16:01:08.500Z,-4.53
2022-12-17T16:02:08.546Z,-4.57
2022-12-17T16:03:08.592Z,-4.62
2022-12-17T16:04:15.889Z,-4.60
2022-12-17T16:05:08.393Z,-4.66
2022-12-17T16:06:08.369Z,-4.71
2022-12-17T16:07:08.365Z,-4.73
2022-12-17T16:08:08.385Z,-4.77
2022-12-17T16:09:08.350Z,-4.78
2022-12-17T16:10:08.387Z,-4.74
2022-12-17T16:11:08.317Z,-4.77
2022-12-17T16:12:08.302Z,-4.75
2022-12-17T16:13:08.297Z,-4.75
2022-12-17T16:14:08.347Z,-4.78
2022-12-17T16:15:08.290Z,-4.78
2022-12-17T16:16:08.289Z,-4.77
2022-12-17T16:17:08.292Z,-4.73
2022-12-17T16:18:08.312Z,-4.71
2022-12-17T16:19:08.261Z,-4.70
2022-12-17T16:20:08.255Z,-4.67
2022-12-17T16:21:08.233Z,-4.64
2022-12-17T16:22:08.253Z,-4.70
2022-12-17T16:23:08.242Z,-4.70
2022-12-17T16:24:08.235Z,-4.70
2022-12-17T16:25:08.207Z,-4.67
2022-12-17T16:26:08.196Z,-4.67
2022-12-17T16:27:08.160Z,-4.66
2022-12-17T16:28:08.160Z,-4.73
2022-12-17T16:29:08.176Z,-4.73
2022-12-17T16:30:08.132Z,-4.71
2022-12-17T16:31:08.223Z,-4.70
2022-12-17T16:32:08.111Z,-4.70
2022-12-17T16:33:08.135Z,-4.67
2022-12-17T16:34:08.110Z,-4.71
2022-12-17T16:35:08.075Z,-4.67
2022-12-17T16:36:08.021Z,-4.67
2022-12-17T16:37:07.990Z,-4.67
2022-12-17T16:38:07.973Z,-4.67
2022-12-17T16:39:07.989Z,-4.66
2022-12-17T16:40:07.952Z,-4.64
2022-12-17T16:41:07.939Z,-4.66
2022-12-17T16:42:07.940Z,-4.64
2022-12-17T16:43:07.940Z,-4.67
2022-12-17T16:44:07.926Z,-4.66
2022-12-17T16:45:07.895Z,-4.66
2022-12-17T16:46:12.215Z,-4.66
2022-12-17T16:47:07.898Z,-4.71
2022-12-17T16:48:07.855Z,-4.71
2022-12-17T16:49:07.866Z,-4.73
2022-12-17T16:50:07.836Z,-4.73
2022-12-17T16:51:07.811Z,-4.75
2022-12-17T16:52:07.810Z,-4.74
2022-12-17T16:53:07.807Z,-4.74
2022-12-17T16:54:07.842Z,-4.78
2022-12-17T16:55:07.796Z,-4.78
2022-12-17T16:56:07.751Z,-4.80
2022-12-17T16:57:07.795Z,-4.84
2022-12-17T16:58:07.738Z,-4.84
2022-12-17T16:59:07.770Z,-4.92
2022-12-17T17:00:07.809Z,-4.93
2022-12-17T17:01:07.775Z,-4.93
2022-12-17T17:02:07.847Z,-4.93
2022-12-17T17:03:07.918Z,-4.93
2022-12-17T17:04:07.815Z,-4.91
2022-12-17T17:05:07.706Z,-4.93
2022-12-17T17:06:07.716Z,-4.96
2022-12-17T17:07:07.697Z,-4.99
2022-12-17T17:08:07.694Z,-4.99
2022-12-17T17:09:07.639Z,-5.01
2022-12-17T17:10:07.663Z,-5.03
2022-12-17T17:11:07.633Z,-5.05
2022-12-17T17:12:07.617Z,-5.05
2022-12-17T17:13:07.608Z,-5.05
2022-12-17T17:14:07.582Z,-5.07
2022-12-17T17:15:07.582Z,-5.09
2022-12-17T17:16:07.680Z,-5.11
2022-12-17T17:17:07.553Z,-5.13
2022-12-17T17:18:07.539Z,-5.14
2022-12-17T17:19:07.532Z,-5.17
2022-12-17T17:20:07.564Z,-5.18
2022-12-17T17:21:07.501Z,-5.18
2022-12-17T17:22:07.494Z,-5.21
2022-12-17T17:23:07.485Z,-5.21
2022-12-17T17:24:07.505Z,-5.25
2022-12-17T17:25:07.458Z,-5.29
2022-12-17T17:26:07.473Z,-5.31
2022-12-17T17:27:07.428Z,-5.32
2022-12-17T17:28:07.407Z,-5.38
2022-12-17T17:29:07.457Z,-5.36
2022-12-17T17:30:07.391Z,-5.36
2022-12-17T17:31:07.451Z,-5.35
2022-12-17T17:32:11.678Z,-5.38
2022-12-17T17:33:07.357Z,-5.38
2022-12-17T17:34:07.368Z,-5.39
2022-12-17T17:35:07.398Z,-5.39
2022-12-17T17:36:07.368Z,-5.41
2022-12-17T17:37:07.320Z,-5.47
2022-12-17T17:38:07.312Z,-5.46
2022-12-17T17:39:07.284Z,-5.46
2022-12-17T17:40:07.273Z,-5.43
2022-12-17T17:41:07.283Z,-5.47
2022-12-17T17:42:07.242Z,-5.50
2022-12-17T17:43:07.237Z,-5.51
2022-12-17T17:44:07.216Z,-5.53
2022-12-17T17:45:07.197Z,-5.56
2022-12-17T17:46:07.315Z,-5.54
2022-12-17T17:47:07.226Z,-5.57
2022-12-17T17:48:07.170Z,-5.61
2022-12-17T17:49:07.169Z,-5.61
2022-12-17T17:50:07.141Z,-5.63
2022-12-17T17:51:07.134Z,-5.60
2022-12-17T17:52:09.952Z,-5.61
2022-12-17T17:53:07.125Z,-5.61
2022-12-17T17:54:12.548Z,-5.60
2022-12-17T17:55:07.084Z,-5.59
2022-12-17T17:56:07.073Z,-5.60
2022-12-17T17:57:07.074Z,-5.54
2022-12-17T17:58:07.059Z,-5.56
2022-12-17T17:59:07.047Z,-5.56
2022-12-17T18:00:07.032Z,-5.56
2022-12-17T18:01:07.006Z,-5.56
2022-12-17T18:02:07.136Z,-5.60
2022-12-17T18:03:07.350Z,-5.57
2022-12-17T18:04:06.945Z,-5.59
2022-12-17T18:05:06.976Z,-5.57
2022-12-17T18:06:06.893Z,-5.60
2022-12-17T18:08:06.928Z,-5.60
2022-12-17T18:09:06.907Z,-5.61
2022-12-17T18:10:06.905Z,-5.65
2022-12-17T18:11:06.918Z,-5.65
2022-12-17T18:12:06.850Z,-5.65
2022-12-17T18:13:06.842Z,-5.63
2022-12-17T18:14:06.789Z,-5.63
2022-12-17T18:15:15.869Z,-5.65
2022-12-17T18:16:06.861Z,-5.65
2022-12-17T18:17:06.796Z,-5.67
2022-12-17T18:18:12.657Z,-5.65
2022-12-17T18:19:06.756Z,-5.61
2022-12-17T18:20:06.798Z,-5.63
2022-12-17T18:21:06.737Z,-5.67
2022-12-17T18:22:06.717Z,-5.65
2022-12-17T18:23:06.737Z,-5.67
2022-12-17T18:24:06.727Z,-5.68
2022-12-17T18:25:06.750Z,-5.68
2022-12-17T18:26:06.713Z,-5.68
2022-12-17T18:27:06.736Z,-5.72
2022-12-17T18:28:06.640Z,-5.74
2022-12-17T18:29:06.685Z,-5.74
2022-12-17T18:30:06.724Z,-5.75
2022-12-17T18:31:06.700Z,-5.74
2022-12-17T18:32:06.702Z,-5.74
2022-12-17T18:33:06.562Z,-5.79
2022-12-17T18:34:06.568Z,-5.77
2022-12-17T18:35:06.620Z,-5.75
2022-12-17T18:36:06.580Z,-5.74
2022-12-17T18:37:06.560Z,-5.78
2022-12-17T18:38:06.558Z,-5.83
2022-12-17T18:39:06.480Z,-5.81
2022-12-17T18:40:06.578Z,-5.85
2022-12-17T18:41:06.485Z,-5.90
2022-12-17T18:42:06.457Z,-5.92
2022-12-17T18:43:06.512Z,-5.96
2022-12-17T18:44:06.482Z,-5.98
2022-12-17T18:45:06.550Z,-6.00
2022-12-17T18:46:06.466Z,-6.04
2022-12-17T18:47:06.460Z,-6.08
2022-12-17T18:48:06.459Z,-6.10
2022-12-17T18:49:06.407Z,-6.14
2022-12-17T18:50:06.354Z,-6.17
2022-12-17T18:51:06.339Z,-6.17
2022-12-17T18:52:08.479Z,-6.16
2022-12-17T18:53:06.407Z,-6.16
2022-12-17T18:54:06.353Z,-6.18
2022-12-17T18:55:06.366Z,-6.17
2022-12-17T18:56:06.328Z,-6.22
2022-12-17T18:57:06.279Z,-6.25
2022-12-17T18:58:06.312Z,-6.25
2022-12-17T18:59:06.256Z,-6.29
2022-12-17T19:00:06.307Z,-6.34
2022-12-17T19:01:06.295Z,-6.34
2022-12-17T19:02:06.329Z,-6.37
2022-12-17T19:03:06.230Z,-6.35
2022-12-17T19:04:06.179Z,-6.34
2022-12-17T19:05:06.186Z,-6.40
2022-12-17T19:06:06.148Z,-6.40
2022-12-17T19:07:06.151Z,-6.39
2022-12-17T19:08:06.151Z,-6.37
2022-12-17T19:09:06.175Z,-6.37
2022-12-17T19:10:06.156Z,-6.37
2022-12-17T19:11:06.138Z,-6.35
2022-12-17T19:12:06.131Z,-6.34
2022-12-17T19:13:06.121Z,-6.37
2022-12-17T19:14:06.099Z,-6.31
2022-12-17T19:15:06.100Z,-6.34
2022-12-17T19:16:06.106Z,-6.34
2022-12-17T19:17:06.203Z,-6.34
2022-12-17T19:18:06.073Z,-6.34
2022-12-17T19:19:06.035Z,-6.31
2022-12-17T19:20:06.020Z,-6.32
2022-12-17T19:21:06.048Z,-6.31
2022-12-17T19:22:06.029Z,-6.34
2022-12-17T19:23:05.979Z,-6.34
2022-12-17T19:24:06.032Z,-6.35
2022-12-17T19:25:05.979Z,-6.40
2022-12-17T19:26:05.918Z,-6.40
2022-12-17T19:27:05.894Z,-6.35
2022-12-17T19:28:05.906Z,-6.35
2022-12-17T19:29:05.881Z,-6.35
2022-12-17T19:30:05.899Z,-6.35
2022-12-17T19:31:05.875Z,-6.37
2022-12-17T19:32:05.971Z,-6.40
2022-12-17T19:33:05.872Z,-6.42
2022-12-17T19:34:05.877Z,-6.45
2022-12-17T19:35:05.843Z,-6.45
2022-12-17T19:36:05.844Z,-6.49
2022-12-17T19:37:05.820Z,-6.50
2022-12-17T19:38:05.820Z,-6.50
2022-12-17T19:39:05.820Z,-6.50
2022-12-17T19:40:05.796Z,-6.47
2022-12-17T19:41:05.783Z,-6.47
2022-12-17T19:42:05.758Z,-6.46
2022-12-17T19:43:05.756Z,-6.43
2022-12-17T19:44:05.694Z,-6.45
2022-12-17T19:45:05.737Z,-6.43
2022-12-17T19:46:05.759Z,-6.47
2022-12-17T19:47:05.697Z,-6.42
2022-12-17T19:48:05.724Z,-6.49
2022-12-17T19:49:05.671Z,-6.49
2022-12-17T19:50:05.694Z,-6.47
2022-12-17T19:51:05.649Z,-6.46
2022-12-17T19:52:05.656Z,-6.46
2022-12-17T19:53:05.813Z,-6.47
2022-12-17T19:54:08.938Z,-6.53
2022-12-17T19:55:05.629Z,-6.50
2022-12-17T19:56:05.622Z,-6.50
2022-12-17T19:57:05.568Z,-6.47
2022-12-17T19:58:05.514Z,-6.53
2022-12-17T19:59:05.547Z,-6.52
2022-12-17T20:00:05.924Z,-6.53
2022-12-17T20:01:05.614Z,-6.52
2022-12-17T20:02:05.657Z,-6.53
2022-12-17T20:03:05.610Z,-6.55
2022-12-17T20:04:05.504Z,-6.55
2022-12-17T20:05:05.506Z,-6.59
2022-12-17T20:06:05.449Z,-6.62
2022-12-17T20:07:05.449Z,-6.61
2022-12-17T20:08:05.434Z,-6.61
2022-12-17T20:09:05.464Z,-6.67
2022-12-17T20:10:05.462Z,-6.64
2022-12-17T20:11:05.398Z,-6.65
2022-12-17T20:12:05.544Z,-6.65
2022-12-17T20:13:05.372Z,-6.65
2022-12-17T20:14:05.380Z,-6.68
2022-12-17T20:15:05.387Z,-6.68
2022-12-17T20:16:05.518Z,-6.68
2022-12-17T20:17:05.461Z,-6.69
2022-12-17T20:18:05.278Z,-6.72
2022-12-17T20:19:05.311Z,-6.72
2022-12-17T20:20:05.270Z,-6.71
2022-12-17T20:21:05.614Z,-6.74
2022-12-17T20:22:05.242Z,-6.71
2022-12-17T20:23:05.342Z,-6.69
2022-12-17T20:24:05.331Z,-6.74
2022-12-17T20:25:05.205Z,-6.74
2022-12-17T20:26:05.227Z,-6.77
2022-12-17T20:27:05.353Z,-6.77
2022-12-17T20:28:05.197Z,-6.82
2022-12-17T20:29:05.160Z,-6.79
2022-12-17T20:30:05.351Z,-6.83
2022-12-17T20:31:05.343Z,-6.87
2022-12-17T20:32:05.199Z,-6.85
2022-12-17T20:33:05.130Z,-6.86
2022-12-17T20:34:05.077Z,-6.89
2022-12-17T20:35:05.126Z,-6.89
2022-12-17T20:36:05.111Z,-6.87
2022-12-17T20:37:05.127Z,-6.90
2022-12-17T20:38:05.072Z,-6.89
2022-12-17T20:39:05.079Z,-6.87
2022-12-17T20:40:05.054Z,-6.87
2022-12-17T20:41:05.064Z,-6.90
2022-12-17T20:42:05.046Z,-6.92
2022-12-17T20:43:05.142Z,-6.93
2022-12-17T20:44:04.993Z,-6.92
2022-12-17T20:45:05.142Z,-6.89
2022-12-17T20:46:05.018Z,-6.90
2022-12-17T20:47:05.001Z,-6.92
2022-12-17T20:48:04.954Z,-6.92
2022-12-17T20:49:04.966Z,-6.93
2022-12-17T20:50:04.972Z,-6.90
2022-12-17T20:51:04.928Z,-6.93
2022-12-17T20:52:04.944Z,-6.95
2022-12-17T20:53:04.891Z,-6.93
2022-12-17T20:54:04.901Z,-6.93
2022-12-17T20:55:04.877Z,-6.95
2022-12-17T20:56:05.104Z,-6.93
2022-12-17T20:57:04.861Z,-6.93
2022-12-17T20:58:05.430Z,-6.92
2022-12-17T20:59:04.823Z,-6.93
2022-12-17T21:00:04.922Z,-6.92
2022-12-17T21:01:04.864Z,-6.90
2022-12-17T21:02:04.922Z,-6.90
2022-12-17T21:03:04.919Z,-6.87
2022-12-17T21:04:04.760Z,-6.86
2022-12-17T21:05:04.752Z,-6.86
2022-12-17T21:06:04.746Z,-6.85
2022-12-17T21:07:04.762Z,-6.86
2022-12-17T21:08:04.707Z,-6.86
2022-12-17T21:09:04.752Z,-6.86
2022-12-17T21:10:04.684Z,-6.86
2022-12-17T21:11:04.679Z,-6.87
2022-12-17T21:12:04.676Z,-6.86
2022-12-17T21:13:04.647Z,-6.85
2022-12-17T21:14:04.658Z,-6.86
2022-12-17T21:15:04.624Z,-6.86
2022-12-17T21:16:04.644Z,-6.85
2022-12-17T21:17:05.089Z,-6.83
2022-12-17T21:18:04.593Z,-6.77
2022-12-17T21:19:04.616Z,-6.80
2022-12-17T21:20:07.616Z,-6.80
2022-12-17T21:21:04.600Z,-6.86
2022-12-17T21:22:04.560Z,-6.80
2022-12-17T21:23:04.536Z,-6.82
2022-12-17T21:24:04.550Z,-6.83
2022-12-17T21:25:04.547Z,-6.82
2022-12-17T21:26:04.499Z,-6.80
2022-12-17T21:27:08.329Z,-6.83
2022-12-17T21:28:04.477Z,-6.80
2022-12-17T21:29:04.460Z,-6.83
2022-12-17T21:30:07.487Z,-6.83
2022-12-17T21:31:04.805Z,-6.83
2022-12-17T21:32:04.432Z,-6.85
2022-12-17T21:33:04.416Z,-6.83
2022-12-17T21:34:04.443Z,-6.86
2022-12-17T21:35:04.394Z,-6.90
2022-12-17T21:36:07.466Z,-6.89
2022-12-17T21:37:04.381Z,-6.92
2022-12-17T21:38:04.438Z,-6.92
2022-12-17T21:39:08.962Z,-6.90
2022-12-17T21:40:04.321Z,-6.93
2022-12-17T21:41:04.555Z,-6.97
2022-12-17T21:42:04.292Z,-6.95
2022-12-17T21:43:04.305Z,-6.95
2022-12-17T21:44:04.277Z,-6.95
2022-12-17T21:45:04.316Z,-6.97
2022-12-17T21:46:04.368Z,-7.00
2022-12-17T21:47:04.277Z,-7.01
2022-12-17T21:48:04.490Z,-7.00
2022-12-17T21:49:04.244Z,-7.07
2022-12-17T21:50:04.221Z,-7.03
2022-12-17T21:51:04.224Z,-7.04
2022-12-17T21:52:04.356Z,-7.08
2022-12-17T21:53:04.197Z,-7.08
2022-12-17T21:54:08.238Z,-7.10
2022-12-17T21:55:04.157Z,-7.10
2022-12-17T21:56:04.161Z,-7.06
2022-12-17T21:57:04.151Z,-7.07
2022-12-17T21:58:04.375Z,-7.04
2022-12-17T21:59:04.100Z,-7.10
2022-12-17T22:00:04.109Z,-7.08
2022-12-17T22:01:04.178Z,-7.10
2022-12-17T22:02:04.181Z,-7.11
2022-12-17T22:03:04.090Z,-7.13
2022-12-17T22:04:04.170Z,-7.16
2022-12-17T22:05:04.117Z,-7.13
2022-12-17T22:06:04.038Z,-7.11
2022-12-17T22:07:06.102Z,-7.10
2022-12-17T22:08:04.016Z,-7.13
2022-12-17T22:09:12.844Z,-7.11
2022-12-17T22:10:35.263Z,-7.15
2022-12-17T22:11:03.971Z,-7.18
2022-12-17T22:12:03.948Z,-7.16
2022-12-17T22:13:03.969Z,-7.16
2022-12-17T22:14:08.052Z,-7.16
2022-12-17T22:15:03.920Z,-7.18
2022-12-17T22:16:04.015Z,-7.16
2022-12-17T22:17:03.888Z,-7.15
2022-12-17T22:18:03.890Z,-7.15
2022-12-17T22:19:03.867Z,-7.15
2022-12-17T22:20:03.926Z,-7.13
2022-12-17T22:21:03.860Z,-7.15
2022-12-17T22:22:03.837Z,-7.16
2022-12-17T22:23:03.911Z,-7.16
2022-12-17T22:24:03.827Z,-7.22
2022-12-17T22:25:08.195Z,-7.15
2022-12-17T22:26:03.768Z,-7.16
2022-12-17T22:27:03.856Z,-7.16
2022-12-17T22:28:03.815Z,-7.16
2022-12-17T22:29:03.790Z,-7.15
2022-12-17T22:30:03.709Z,-7.13
2022-12-17T22:31:03.776Z,-7.13
2022-12-17T22:32:03.722Z,-7.13
2022-12-17T22:33:09.483Z,-7.15
2022-12-17T22:35:07.380Z,-7.16
2022-12-17T22:39:30.582Z,-7.15
2022-12-17T22:44:39.383Z,-7.19
2022-12-17T22:45:00.450Z,-7.21
2022-12-17T22:45:11.145Z,-7.22
2022-12-17T22:46:05.490Z,-7.21
2022-12-17T22:47:05.416Z,-7.25
2022-12-17T22:48:05.388Z,-7.25
2022-12-17T22:49:05.394Z,-7.24
2022-12-17T22:50:05.363Z,-7.25
2022-12-17T22:51:09.110Z,-7.22
2022-12-17T22:52:05.576Z,-7.21
2022-12-17T22:53:05.386Z,-7.21
2022-12-17T22:54:05.365Z,-7.22
2022-12-17T22:55:05.305Z,-7.25
2022-12-17T22:56:13.418Z,-7.21
2022-12-17T22:57:34.839Z,-7.19
2022-12-17T22:58:05.286Z,-7.13
2022-12-17T22:59:05.342Z,-7.18
2022-12-17T23:00:05.248Z,-7.16
2022-12-17T23:01:05.322Z,-7.16
2022-12-17T23:02:05.440Z,-7.18
2022-12-17T23:03:05.373Z,-7.18
2022-12-17T23:04:05.473Z,-7.22
2022-12-17T23:05:05.195Z,-7.22
2022-12-17T23:06:05.182Z,-7.21
2022-12-17T23:07:05.198Z,-7.19
2022-12-17T23:08:05.151Z,-7.19
2022-12-17T23:09:05.167Z,-7.19
2022-12-17T23:10:05.272Z,-7.21
2022-12-17T23:11:05.174Z,-7.22
2022-12-17T23:12:05.103Z,-7.22
2022-12-17T23:13:05.144Z,-7.24
2022-12-17T23:14:05.108Z,-7.28
2022-12-17T23:15:05.075Z,-7.29
2022-12-17T23:16:05.125Z,-7.29
2022-12-17T23:17:05.032Z,-7.28
2022-12-17T23:18:05.022Z,-7.32
2022-12-17T23:19:05.136Z,-7.29
2022-12-17T23:20:05.073Z,-7.32
2022-12-17T23:21:04.987Z,-7.35
2022-12-17T23:22:05.013Z,-7.35
2022-12-17T23:23:04.971Z,-7.36
2022-12-17T23:24:05.175Z,-7.35
2022-12-17T23:25:04.946Z,-7.37
2022-12-17T23:26:04.925Z,-7.39
2022-12-17T23:27:04.924Z,-7.40
2022-12-17T23:28:04.911Z,-7.37
2022-12-17T23:29:04.917Z,-7.37
2022-12-17T23:30:04.912Z,-7.37
2022-12-17T23:31:05.036Z,-7.39
2022-12-17T23:32:04.878Z,-7.39
2022-12-17T23:33:04.884Z,-7.40
2022-12-17T23:34:04.925Z,-7.42
2022-12-17T23:35:04.852Z,-7.43